createdAt,value
2018-05-15T00:00:34.872Z,31.33
2018-05-15T00:03:02.344Z,32.83
2018-05-15T00:05:29.814Z,33.47
2018-05-15T00:07:57.373Z,33.47
2018-05-15T00:10:24.835Z,35.00
2018-05-15T00:12:52.301Z,33.70
2018-05-15T00:15:19.764Z,36.20
2018-05-15T00:17:47.326Z,36.90
2018-05-15T00:20:14.897Z,35.57
2018-05-15T00:22:42.342Z,36.80
2018-05-15T00:25:09.811Z,37.73
2018-05-15T00:27:37.258Z,36.00
2018-05-15T00:30:04.750Z,42.00
2018-05-15T00:32:32.197Z,38.77
2018-05-15T00:34:59.668Z,40.03
2018-05-15T00:37:27.129Z,38.53
2018-05-15T00:39:54.701Z,42.03
2018-05-15T00:42:22.266Z,37.90
2018-05-15T00:44:49.720Z,39.93
2018-05-15T00:47:17.168Z,44.03
2018-05-15T00:49:44.753Z,45.10
2018-05-15T00:52:12.201Z,42.83
2018-05-15T00:54:39.690Z,41.83
2018-05-15T00:57:07.250Z,41.90
2018-05-15T00:59:34.818Z,43.20
2018-05-15T01:02:02.333Z,42.43
2018-05-15T01:04:30.543Z,47.13
2018-05-15T01:06:58.005Z,46.57
2018-05-15T01:09:25.479Z,47.33
2018-05-15T01:11:52.937Z,45.53
2018-05-15T01:14:20.383Z,43.63
2018-05-15T01:16:47.849Z,43.90
2018-05-15T01:19:15.322Z,44.30
2018-05-15T01:21:42.802Z,45.60
2018-05-15T01:24:10.253Z,43.43
2018-05-15T01:26:37.829Z,41.47
2018-05-15T01:29:05.293Z,42.70
2018-05-15T01:31:32.742Z,41.90
2018-05-15T01:34:00.281Z,37.40
2018-05-15T01:36:28.502Z,38.20
2018-05-15T01:38:55.970Z,38.30
2018-05-15T01:41:23.436Z,35.43
2018-05-15T01:43:50.896Z,38.80
2018-05-15T01:46:18.357Z,37.30
2018-05-15T01:48:45.806Z,36.03
2018-05-15T01:51:13.275Z,37.17
2018-05-15T01:53:40.729Z,37.67
2018-05-15T01:56:08.225Z,36.13
2018-05-15T01:58:35.668Z,40.37
2018-05-15T02:01:03.238Z,38.93
2018-05-15T02:03:30.705Z,40.37
2018-05-15T02:05:58.157Z,39.40
2018-05-15T02:08:25.627Z,37.53
2018-05-15T02:10:53.109Z,35.30
2018-05-15T02:13:20.659Z,40.50
2018-05-15T02:15:48.104Z,39.23
2018-05-15T02:18:15.577Z,35.33
2018-05-15T02:20:43.148Z,43.93
2018-05-15T02:23:10.624Z,39.63
2018-05-15T02:25:38.055Z,38.93
2018-05-15T02:28:05.542Z,42.90
2018-05-15T02:30:33.086Z,40.10
2018-05-15T02:33:00.474Z,41.80
2018-05-15T02:35:27.928Z,33.97
2018-05-15T02:37:55.401Z,35.60
2018-05-15T02:40:22.868Z,39.67
2018-05-15T02:42:50.308Z,40.53
2018-05-15T02:45:17.780Z,34.47
2018-05-15T02:47:45.358Z,39.17
2018-05-15T02:50:12.817Z,38.03
2018-05-15T02:52:40.275Z,35.67
2018-05-15T02:55:07.745Z,35.03
2018-05-15T02:57:35.213Z,33.70
2018-05-15T03:00:02.649Z,38.57
2018-05-15T03:02:30.167Z,39.57
2018-05-15T03:04:58.405Z,43.03
2018-05-15T03:07:25.867Z,38.27
2018-05-15T03:09:53.324Z,37.77
2018-05-15T03:12:20.798Z,42.80
2018-05-15T03:14:48.261Z,42.53
2018-05-15T03:17:15.705Z,39.47
2018-05-15T03:19:43.172Z,37.40
2018-05-15T03:22:10.629Z,38.87
2018-05-15T03:24:38.416Z,37.67
2018-05-15T03:27:05.982Z,37.73
2018-05-15T03:29:33.449Z,35.40
2018-05-15T03:32:01.014Z,38.63
2018-05-15T03:34:28.470Z,43.47
2018-05-15T03:36:56.041Z,39.43
2018-05-15T03:39:24.526Z,37.87
2018-05-15T03:41:52.093Z,40.47
2018-05-15T03:44:19.757Z,42.33
2018-05-15T03:46:47.232Z,35.03
2018-05-15T03:49:14.673Z,38.43
2018-05-15T03:51:42.148Z,38.67
2018-05-15T03:54:09.617Z,35.77
2018-05-15T03:56:37.182Z,39.47
2018-05-15T03:59:04.645Z,37.33
2018-05-15T04:01:44.073Z,34.60
2018-05-15T04:04:23.593Z,39.50
2018-05-15T04:07:04.048Z,38.93
2018-05-15T04:09:31.511Z,36.73
2018-05-15T04:11:58.975Z,36.10
2018-05-15T04:14:26.477Z,34.93
2018-05-15T04:16:53.924Z,36.20
2018-05-15T04:19:21.400Z,37.53
2018-05-15T04:21:48.970Z,36.47
2018-05-15T04:24:16.411Z,35.20
2018-05-15T04:26:43.877Z,35.23
2018-05-15T04:29:11.355Z,36.27
2018-05-15T04:31:38.836Z,33.23
2018-05-15T04:34:07.790Z,34.87
2018-05-15T04:36:35.233Z,39.80
2018-05-15T04:39:03.470Z,37.50
2018-05-15T04:41:30.933Z,37.73
2018-05-15T04:43:58.456Z,39.87
2018-05-15T04:46:25.841Z,35.20
2018-05-15T04:48:53.306Z,40.10
2018-05-15T04:51:20.757Z,38.13
2018-05-15T04:53:48.227Z,35.90
2018-05-15T04:56:15.697Z,36.17
2018-05-15T04:58:43.154Z,33.17
2018-05-15T05:01:10.606Z,34.23
2018-05-15T05:03:38.073Z,33.10
2018-05-15T05:06:05.540Z,39.37
2018-05-15T05:08:33.012Z,36.47
2018-05-15T05:11:00.481Z,31.97
2018-05-15T05:13:27.928Z,38.70
2018-05-15T05:15:55.396Z,31.10
2018-05-15T05:18:22.857Z,33.03
2018-05-15T05:20:50.346Z,32.33
2018-05-15T05:23:17.788Z,34.00
2018-05-15T05:25:45.239Z,34.37
2018-05-15T05:28:12.693Z,31.70
2018-05-15T05:30:40.142Z,34.30
2018-05-15T05:33:07.603Z,31.63
2018-05-15T05:35:35.058Z,32.80
2018-05-15T05:38:03.299Z,35.90
2018-05-15T05:40:30.753Z,34.50
2018-05-15T05:42:58.312Z,32.23
2018-05-15T05:45:25.774Z,32.67
2018-05-15T05:47:53.266Z,32.17
2018-05-15T05:50:20.714Z,29.70
2018-05-15T05:52:48.274Z,31.77
2018-05-15T05:55:15.724Z,34.87
2018-05-15T05:57:43.198Z,29.93
2018-05-15T06:00:10.762Z,34.87
2018-05-15T06:02:38.209Z,29.63
2018-05-15T06:05:05.688Z,32.90
2018-05-15T06:07:33.130Z,31.30
2018-05-15T06:10:00.617Z,31.07
2018-05-15T06:12:28.073Z,31.23
2018-05-15T06:14:55.580Z,30.73
2018-05-15T06:17:23.005Z,32.63
2018-05-15T06:19:50.574Z,30.00
2018-05-15T06:22:18.133Z,30.70
2018-05-15T06:24:45.704Z,30.90
2018-05-15T06:27:13.159Z,32.77
2018-05-15T06:29:40.602Z,26.90
2018-05-15T06:32:08.097Z,31.13
2018-05-15T06:34:35.553Z,27.80
2018-05-15T06:37:03.004Z,28.87
2018-05-15T06:39:30.486Z,28.40
2018-05-15T06:41:57.957Z,31.93
2018-05-15T06:44:25.433Z,25.47
2018-05-15T06:46:52.901Z,29.43
2018-05-15T06:49:20.365Z,29.90
2018-05-15T06:51:47.892Z,24.70
2018-05-15T06:54:15.361Z,25.27
2018-05-15T06:56:42.926Z,29.97
2018-05-15T06:59:10.371Z,29.33
2018-05-15T07:01:37.829Z,24.97
2018-05-15T07:04:05.328Z,27.10
2018-05-15T07:06:32.784Z,26.47
2018-05-15T07:09:00.259Z,26.53
2018-05-15T07:11:27.815Z,27.13
2018-05-15T07:13:55.301Z,26.97
2018-05-15T07:16:22.728Z,25.13
2018-05-15T07:18:50.218Z,21.83
2018-05-15T07:21:17.677Z,24.30
2018-05-15T07:23:45.137Z,25.00
2018-05-15T07:26:12.693Z,25.27
2018-05-15T07:28:40.141Z,23.50
2018-05-15T07:31:07.609Z,25.67
2018-05-15T07:33:35.061Z,25.43
2018-05-15T07:36:02.545Z,24.50
2018-05-15T07:38:29.993Z,23.90
2018-05-15T07:40:57.477Z,26.40
2018-05-15T07:43:24.931Z,26.60
2018-05-15T07:45:52.389Z,25.70
2018-05-15T07:48:19.952Z,24.73
2018-05-15T07:50:47.423Z,27.67
2018-05-15T07:53:14.864Z,24.60
2018-05-15T07:55:42.321Z,28.47
2018-05-15T07:58:09.817Z,27.70
2018-05-15T08:00:37.277Z,24.80
2018-05-15T08:03:04.835Z,28.17
2018-05-15T08:05:32.319Z,25.00
2018-05-15T08:07:59.769Z,23.87
2018-05-15T08:10:27.233Z,24.43
2018-05-15T08:12:54.686Z,24.43
2018-05-15T08:15:22.184Z,20.67
2018-05-15T08:17:49.644Z,21.10
2018-05-15T08:20:17.184Z,19.40
2018-05-15T08:22:44.649Z,24.50
2018-05-15T08:25:12.110Z,21.83
2018-05-15T08:27:39.577Z,22.27
2018-05-15T08:30:07.041Z,18.00
2018-05-15T08:32:34.501Z,22.60
2018-05-15T08:35:01.978Z,21.90
2018-05-15T08:37:29.444Z,24.87
2018-05-15T08:39:56.895Z,16.07
2018-05-15T08:42:24.344Z,13.57
2018-05-15T08:44:51.847Z,15.83
2018-05-15T08:47:19.309Z,18.57
2018-05-15T08:49:46.766Z,16.03
2018-05-15T08:52:14.315Z,50.40
2018-05-15T08:54:41.777Z,18.07
2018-05-15T08:57:09.239Z,16.20
2018-05-15T08:59:36.690Z,12.83
2018-05-15T09:02:04.165Z,12.40
2018-05-15T09:04:31.745Z,11.40
2018-05-15T09:06:59.182Z,11.50
2018-05-15T09:09:26.650Z,11.90
2018-05-15T09:11:54.121Z,11.80
2018-05-15T09:14:21.586Z,14.47
2018-05-15T09:16:49.053Z,12.37
2018-05-15T09:19:16.559Z,11.60
2018-05-15T09:21:43.975Z,12.40
2018-05-15T09:24:11.429Z,14.97
2018-05-15T09:26:38.901Z,13.97
2018-05-15T09:29:06.382Z,14.20
2018-05-15T09:31:33.825Z,13.93
2018-05-15T09:34:01.285Z,13.93
2018-05-15T09:36:28.825Z,17.00
2018-05-15T09:38:56.211Z,19.63
2018-05-15T09:41:23.680Z,13.77
2018-05-15T09:43:53.944Z,14.33
2018-05-15T09:46:21.418Z,16.83
2018-05-15T09:48:49.649Z,14.50
2018-05-15T09:51:17.121Z,15.80
2018-05-15T09:53:44.574Z,18.57
2018-05-15T09:56:12.026Z,14.37
2018-05-15T09:58:39.489Z,16.67
2018-05-15T10:01:06.973Z,14.47
2018-05-15T10:03:34.436Z,13.60
2018-05-15T10:06:02.006Z,14.50
2018-05-15T10:08:29.445Z,14.97
2018-05-15T10:10:56.905Z,16.47
2018-05-15T10:13:24.377Z,15.20
2018-05-15T10:15:51.845Z,13.33
2018-05-15T10:18:19.289Z,11.20
2018-05-15T10:20:46.765Z,12.57
2018-05-15T10:23:14.221Z,12.50
2018-05-15T10:25:41.677Z,13.90
2018-05-15T10:28:09.150Z,13.10
2018-05-15T10:30:36.624Z,11.37
2018-05-15T10:33:04.066Z,10.97
2018-05-15T10:35:31.527Z,10.53
2018-05-15T10:37:59.042Z,13.37
2018-05-15T10:40:26.510Z,11.70
2018-05-15T10:42:53.969Z,13.17
2018-05-15T10:45:21.510Z,10.70
2018-05-15T10:47:48.957Z,11.73
2018-05-15T10:50:16.428Z,14.13
2018-05-15T10:52:43.867Z,14.33
2018-05-15T10:55:11.331Z,11.60
2018-05-15T10:57:38.794Z,11.77
2018-05-15T11:00:06.298Z,9.70
2018-05-15T11:02:33.755Z,13.30
2018-05-15T11:05:01.213Z,15.23
2018-05-15T11:07:28.651Z,12.30
2018-05-15T11:09:56.122Z,13.77
2018-05-15T11:12:23.581Z,9.77
2018-05-15T11:14:51.043Z,10.90
2018-05-15T11:17:18.526Z,9.30
2018-05-15T11:19:57.691Z,8.00
2018-05-15T11:22:37.018Z,7.37
2018-05-15T11:25:04.557Z,11.27
2018-05-15T11:27:32.024Z,11.33
2018-05-15T11:29:59.461Z,9.77
2018-05-15T11:32:26.929Z,10.30
2018-05-15T11:34:54.389Z,9.27
2018-05-15T11:37:21.853Z,10.00
2018-05-15T11:39:49.302Z,11.13
2018-05-15T11:42:16.781Z,9.50
2018-05-15T11:44:44.225Z,10.27
2018-05-15T11:47:11.677Z,10.40
2018-05-15T11:49:40.776Z,12.90
2018-05-15T11:52:08.009Z,8.20
2018-05-15T11:54:34.821Z,9.13
2018-05-15T11:57:02.296Z,9.17
2018-05-15T11:59:29.754Z,10.50
2018-05-15T12:01:57.219Z,11.20
2018-05-15T12:04:24.680Z,8.53
2018-05-15T12:06:52.142Z,10.07
2018-05-15T12:09:19.717Z,12.50
2018-05-15T12:11:47.177Z,12.10
2018-05-15T12:14:14.638Z,12.03
2018-05-15T12:16:42.081Z,12.87
2018-05-15T12:19:09.570Z,8.97
2018-05-15T12:21:37.018Z,7.27
2018-05-15T12:24:04.472Z,6.57
2018-05-15T12:26:31.957Z,6.70
2018-05-15T12:28:59.437Z,5.10
2018-05-15T12:31:26.893Z,4.57
2018-05-15T12:33:54.382Z,4.60
2018-05-15T12:36:21.828Z,5.60
2018-05-15T12:38:49.281Z,3.87
2018-05-15T12:41:16.746Z,6.10
2018-05-15T12:43:44.188Z,7.27
2018-05-15T12:46:11.638Z,7.47
2018-05-15T12:48:39.112Z,6.77
2018-05-15T12:51:06.546Z,6.50
2018-05-15T12:53:34.869Z,7.43
2018-05-15T12:56:02.334Z,7.80
2018-05-15T12:58:29.900Z,7.43
2018-05-15T13:00:57.330Z,7.53
2018-05-15T13:03:24.790Z,7.73
2018-05-15T13:05:52.296Z,8.90
2018-05-15T13:08:19.766Z,8.23
2018-05-15T13:10:47.243Z,8.27
2018-05-15T13:13:14.778Z,7.93
2018-05-15T13:15:42.220Z,10.93
2018-05-15T13:18:09.682Z,9.23
2018-05-15T13:20:37.122Z,9.07
2018-05-15T13:23:05.454Z,9.27
2018-05-15T13:25:32.912Z,8.23
2018-05-15T13:28:00.365Z,9.37
2018-05-15T13:30:27.837Z,10.20
2018-05-15T13:32:55.296Z,9.93
2018-05-15T13:35:22.808Z,9.10
2018-05-15T13:37:50.214Z,8.00
2018-05-15T13:40:17.650Z,7.33
2018-05-15T13:42:45.861Z,13.23
2018-05-15T13:45:13.337Z,10.20
2018-05-15T13:47:40.784Z,5.57
2018-05-15T13:50:08.223Z,5.57
2018-05-15T13:52:35.699Z,5.17
2018-05-15T13:55:03.160Z,6.50
2018-05-15T13:57:30.606Z,5.67
2018-05-15T13:59:58.824Z,5.17
2018-05-15T14:02:26.281Z,4.50
2018-05-15T14:04:53.761Z,5.03
2018-05-15T14:07:21.222Z,4.93
2018-05-15T14:09:48.698Z,7.13
2018-05-15T14:12:16.147Z,3.90
2018-05-15T14:14:43.605Z,4.90
2018-05-15T14:17:11.052Z,3.60
2018-05-15T14:19:38.520Z,3.63
2018-05-15T14:22:05.995Z,4.33
2018-05-15T14:24:33.468Z,5.97
2018-05-15T14:27:00.902Z,3.83
2018-05-15T14:29:28.345Z,4.77
2018-05-15T14:31:56.674Z,7.27
2018-05-15T14:34:24.121Z,6.63
2018-05-15T14:36:51.575Z,6.00
2018-05-15T14:39:19.037Z,6.90
2018-05-15T14:41:58.377Z,3.37
2018-05-15T14:44:25.858Z,6.37
2018-05-15T14:46:53.336Z,5.43
2018-05-15T14:49:20.890Z,4.90
2018-05-15T14:51:48.336Z,3.97
2018-05-15T14:54:15.812Z,3.40
2018-05-15T14:56:43.282Z,3.67
2018-05-15T14:59:10.753Z,5.53
2018-05-15T15:01:38.196Z,6.13
2018-05-15T15:04:05.657Z,4.43
2018-05-15T15:06:33.129Z,5.23
2018-05-15T15:09:00.602Z,3.53
2018-05-15T15:11:28.155Z,3.10
2018-05-15T15:13:55.600Z,7.00
2018-05-15T15:16:23.042Z,3.13
2018-05-15T15:18:51.257Z,3.57
2018-05-15T15:21:18.703Z,3.53
2018-05-15T15:23:46.208Z,3.83
2018-05-15T15:26:13.606Z,4.30
2018-05-15T15:28:41.936Z,3.33
2018-05-15T15:31:09.375Z,4.77
2018-05-15T15:33:36.864Z,3.77
2018-05-15T15:36:04.325Z,3.83
2018-05-15T15:38:31.889Z,4.93
2018-05-15T15:40:59.337Z,3.77
2018-05-15T15:43:26.800Z,3.50
2018-05-15T15:45:54.258Z,4.77
2018-05-15T15:48:21.705Z,3.70
2018-05-15T15:50:49.174Z,4.10
2018-05-15T15:53:16.611Z,6.63
2018-05-15T15:55:44.943Z,4.43
2018-05-15T15:58:12.302Z,4.07
2018-05-15T16:00:39.766Z,3.43
2018-05-15T16:03:07.246Z,10.80
2018-05-15T16:05:34.713Z,4.00
2018-05-15T16:08:02.179Z,3.43
2018-05-15T16:10:29.726Z,4.77
2018-05-15T16:12:57.293Z,8.33
2018-05-15T16:15:24.766Z,4.27
2018-05-15T16:17:52.237Z,4.30
2018-05-15T16:20:19.786Z,5.23
2018-05-15T16:22:47.339Z,7.87
2018-05-15T16:25:14.715Z,7.43
2018-05-15T16:27:42.281Z,5.23
2018-05-15T16:30:09.728Z,6.33
2018-05-15T16:32:37.205Z,5.40
2018-05-15T16:35:04.650Z,4.20
2018-05-15T16:37:32.140Z,4.47
2018-05-15T16:39:59.548Z,5.27
2018-05-15T16:42:27.767Z,6.47
2018-05-15T16:44:55.234Z,4.90
2018-05-15T16:47:22.709Z,5.57
2018-05-15T16:49:50.142Z,4.47
2018-05-15T16:52:17.602Z,5.17
2018-05-15T16:54:45.085Z,6.60
2018-05-15T16:57:12.653Z,4.17
2018-05-15T16:59:40.121Z,4.30
2018-05-15T17:02:07.611Z,4.70
2018-05-15T17:04:35.142Z,5.77
2018-05-15T17:07:02.597Z,5.97
2018-05-15T17:09:30.063Z,5.33
2018-05-15T17:11:57.550Z,8.60
2018-05-15T17:14:25.034Z,5.23
2018-05-15T17:16:54.027Z,7.33
2018-05-15T17:19:21.431Z,6.13
2018-05-15T17:21:48.928Z,5.23
2018-05-15T17:24:16.398Z,4.50
2018-05-15T17:26:43.849Z,7.57
2018-05-15T17:29:11.314Z,5.80
2018-05-15T17:31:38.757Z,5.63
2018-05-15T17:34:06.222Z,4.27
2018-05-15T17:36:33.672Z,5.27
2018-05-15T17:39:01.134Z,5.10
2018-05-15T17:41:29.346Z,4.03
2018-05-15T17:43:57.066Z,6.90
2018-05-15T17:46:25.291Z,4.43
2018-05-15T17:48:52.767Z,3.83
2018-05-15T17:51:20.235Z,4.93
2018-05-15T17:53:47.717Z,6.23
2018-05-15T17:56:15.181Z,3.70
2018-05-15T17:58:43.426Z,5.13
2018-05-15T18:01:10.881Z,6.00
2018-05-15T18:03:38.334Z,4.13
2018-05-15T18:06:05.792Z,7.33
2018-05-15T18:08:33.311Z,6.33
2018-05-15T18:11:00.751Z,5.50
2018-05-15T18:13:28.186Z,7.30
2018-05-15T18:15:55.649Z,3.60
2018-05-15T18:18:23.143Z,4.53
2018-05-15T18:20:50.701Z,7.83
2018-05-15T18:23:18.269Z,3.83
2018-05-15T18:25:45.733Z,3.87
2018-05-15T18:28:13.193Z,4.13
2018-05-15T18:30:40.674Z,3.73
2018-05-15T18:33:08.177Z,4.60
2018-05-15T18:35:35.561Z,4.80
2018-05-15T18:38:03.045Z,4.10
2018-05-15T18:40:30.494Z,3.40
2018-05-15T18:42:57.969Z,4.00
2018-05-15T18:45:25.478Z,3.90
2018-05-15T18:47:52.917Z,4.73
2018-05-15T18:50:20.392Z,5.73
2018-05-15T18:52:47.952Z,3.57
2018-05-15T18:55:15.386Z,3.43
2018-05-15T18:57:42.858Z,4.47
2018-05-15T19:00:10.401Z,5.93
2018-05-15T19:02:37.763Z,3.77
2018-05-15T19:05:05.235Z,5.00
2018-05-15T19:07:32.685Z,3.20
2018-05-15T19:10:00.152Z,4.10
2018-05-15T19:12:27.589Z,6.33
2018-05-15T19:14:55.826Z,3.93
2018-05-15T19:17:23.290Z,4.23
2018-05-15T19:19:50.733Z,4.80
2018-05-15T19:22:18.206Z,5.93
2018-05-15T19:24:45.697Z,3.80
2018-05-15T19:27:14.722Z,4.00
2018-05-15T19:29:42.152Z,5.60
2018-05-15T19:32:15.440Z,3.90
2018-05-15T19:34:48.679Z,3.70
2018-05-15T19:37:16.920Z,5.90
2018-05-15T19:39:44.466Z,3.87
2018-05-15T19:42:11.826Z,4.70
2018-05-15T19:44:39.267Z,6.27
2018-05-15T19:47:06.754Z,2.90
2018-05-15T19:49:34.212Z,4.40
2018-05-15T19:52:01.686Z,3.30
2018-05-15T19:54:29.226Z,4.00
2018-05-15T19:56:56.609Z,3.63
2018-05-15T19:59:24.078Z,6.07
2018-05-15T20:01:51.549Z,6.03
2018-05-15T20:04:19.108Z,4.07
2018-05-15T20:06:46.583Z,4.40
2018-05-15T20:09:14.062Z,4.57
2018-05-15T20:11:41.545Z,4.87
2018-05-15T20:14:09.766Z,4.50
2018-05-15T20:16:37.240Z,5.10
2018-05-15T20:19:04.806Z,4.40
2018-05-15T20:21:32.250Z,5.23
2018-05-15T20:23:59.724Z,5.30
2018-05-15T20:26:27.194Z,4.87
2018-05-15T20:28:54.666Z,5.17
2018-05-15T20:31:22.138Z,4.80
2018-05-15T20:33:49.583Z,4.43
2018-05-15T20:36:17.051Z,5.93
2018-05-15T20:38:44.610Z,4.90
2018-05-15T20:41:12.106Z,5.43
2018-05-15T20:43:40.319Z,6.10
2018-05-15T20:46:07.778Z,4.23
2018-05-15T20:48:35.259Z,4.70
2018-05-15T20:51:02.702Z,4.03
2018-05-15T20:53:30.183Z,4.40
2018-05-15T20:55:57.644Z,5.90
2018-05-15T20:58:25.161Z,8.17
2018-05-15T21:00:52.626Z,5.63
2018-05-15T21:03:20.165Z,6.43
2018-05-15T21:05:47.614Z,5.00
2018-05-15T21:08:15.081Z,5.43
2018-05-15T21:10:42.539Z,6.53
2018-05-15T21:13:10.023Z,6.20
2018-05-15T21:15:37.466Z,4.70
2018-05-15T21:18:04.938Z,7.03
2018-05-15T21:20:32.406Z,5.63
2018-05-15T21:22:59.854Z,4.83
2018-05-15T21:25:27.317Z,5.83
2018-05-15T21:27:54.857Z,5.83
2018-05-15T21:30:22.338Z,9.10
2018-05-15T21:32:49.775Z,5.50
2018-05-15T21:35:18.010Z,5.10
2018-05-15T21:37:45.459Z,6.87
2018-05-15T21:40:12.923Z,5.33
2018-05-15T21:42:40.369Z,6.57
2018-05-15T21:45:07.835Z,6.50
2018-05-15T21:47:35.942Z,5.33
2018-05-15T21:50:03.426Z,5.87
2018-05-15T21:52:30.854Z,5.60
2018-05-15T21:54:58.425Z,6.60
2018-05-15T21:57:25.862Z,7.07
2018-05-15T21:59:53.335Z,5.67
2018-05-15T22:02:20.816Z,6.77
2018-05-15T22:04:48.279Z,5.43
2018-05-15T22:07:15.727Z,7.73
2018-05-15T22:09:43.189Z,7.20
2018-05-15T22:12:22.374Z,5.90
2018-05-15T22:15:02.647Z,6.63
2018-05-15T22:17:42.085Z,6.93
2018-05-15T22:20:21.614Z,6.20
2018-05-15T22:22:49.438Z,7.40
2018-05-15T22:25:16.885Z,7.13
2018-05-15T22:27:44.357Z,6.20
2018-05-15T22:30:11.806Z,6.50
2018-05-15T22:32:39.270Z,5.83
2018-05-15T22:35:06.766Z,6.50
2018-05-15T22:37:34.231Z,7.60
2018-05-15T22:40:01.794Z,5.73
2018-05-15T22:42:29.346Z,6.53
2018-05-15T22:44:56.787Z,6.40
2018-05-15T22:47:24.265Z,8.00
2018-05-15T22:49:51.696Z,8.77
2018-05-15T22:52:19.171Z,7.17
2018-05-15T22:54:46.671Z,6.70
2018-05-15T22:57:14.150Z,6.60
2018-05-15T22:59:41.613Z,6.20
2018-05-15T23:02:09.061Z,6.50
2018-05-15T23:04:36.625Z,8.23
2018-05-15T23:07:04.087Z,8.20
2018-05-15T23:09:31.551Z,6.33
2018-05-15T23:11:59.013Z,10.30
2018-05-15T23:14:26.577Z,13.03
2018-05-15T23:16:54.034Z,8.87
2018-05-15T23:19:21.515Z,7.20
2018-05-15T23:21:48.961Z,6.70
2018-05-15T23:24:16.425Z,7.50
2018-05-15T23:26:43.892Z,7.23
2018-05-15T23:29:11.353Z,9.23
2018-05-15T23:31:38.814Z,7.67
2018-05-15T23:34:06.382Z,9.70
2018-05-15T23:36:33.847Z,8.93
2018-05-15T23:39:01.305Z,9.00
2018-05-15T23:41:28.781Z,7.63
2018-05-15T23:43:56.258Z,7.93
2018-05-15T23:46:23.798Z,11.40
2018-05-15T23:48:51.262Z,7.43
2018-05-15T23:51:18.748Z,8.73
2018-05-15T23:53:46.189Z,7.77
2018-05-15T23:56:13.646Z,9.40
2018-05-15T23:58:41.122Z,8.17
